createdAt,value
2018-12-08T00:00:37.848Z,100965.70
2018-12-08T00:03:06.608Z,100960.45
2018-12-08T00:05:35.267Z,100982.05
2018-12-08T00:08:03.951Z,100970.66
2018-12-08T00:10:32.595Z,100975.28
2018-12-08T00:13:01.216Z,100967.39
2018-12-08T00:15:29.873Z,100978.20
2018-12-08T00:17:58.490Z,100971.17
2018-12-08T00:20:27.624Z,100968.81
2018-12-08T00:22:56.271Z,100989.05
2018-12-08T00:25:24.902Z,100966.03
2018-12-08T00:27:53.526Z,100970.62
2018-12-08T00:30:33.198Z,100965.36
2018-12-08T00:33:01.827Z,100978.30
2018-12-08T00:35:30.454Z,100996.92
2018-12-08T00:37:59.099Z,100962.55
2018-12-08T00:40:27.723Z,100966.33
2018-12-08T00:42:56.372Z,100969.36
2018-12-08T00:45:25.023Z,100976.64
2018-12-08T00:47:53.666Z,100978.80
2018-12-08T00:50:22.272Z,101025.22
2018-12-08T00:52:50.967Z,100983.02
2018-12-08T00:55:19.613Z,100986.02
2018-12-08T00:57:48.242Z,100994.20
2018-12-08T01:00:17.032Z,100982.35
2018-12-08T01:02:45.629Z,101035.21
2018-12-08T01:05:14.338Z,101000.85
2018-12-08T01:07:42.986Z,101007.28
2018-12-08T01:10:11.623Z,101034.10
2018-12-08T01:12:40.273Z,101014.52
2018-12-08T01:15:08.953Z,101007.60
2018-12-08T01:17:37.570Z,100999.79
2018-12-08T01:20:06.448Z,101010.98
2018-12-08T01:22:35.091Z,101021.39
2018-12-08T01:25:04.712Z,101011.91
2018-12-08T01:27:33.355Z,101023.63
2018-12-08T01:30:01.977Z,101027.00
2018-12-08T01:32:30.606Z,101029.61
2018-12-08T01:34:59.227Z,101022.56
2018-12-08T01:37:27.861Z,101017.67
2018-12-08T01:39:56.482Z,101058.50
2018-12-08T01:42:25.110Z,101014.70
2018-12-08T01:44:53.728Z,101016.00
2018-12-08T01:47:22.373Z,101034.69
2018-12-08T01:49:50.977Z,101034.16
2018-12-08T01:52:19.612Z,101029.48
2018-12-08T01:54:48.251Z,101035.54
2018-12-08T01:57:16.911Z,101026.87
2018-12-08T01:59:45.605Z,101022.52
2018-12-08T02:02:14.266Z,101031.02
2018-12-08T02:04:42.933Z,101042.73
2018-12-08T02:07:11.622Z,101012.33
2018-12-08T02:09:40.278Z,101002.77
2018-12-08T02:12:08.918Z,101036.18
2018-12-08T02:14:37.621Z,101028.69
2018-12-08T02:17:06.290Z,101040.27
2018-12-08T02:19:34.964Z,101041.58
2018-12-08T02:22:03.638Z,101041.95
2018-12-08T02:24:32.262Z,101040.64
2018-12-08T02:27:01.769Z,101053.22
2018-12-08T02:29:30.445Z,101055.38
2018-12-08T02:31:59.116Z,101050.56
2018-12-08T02:34:27.796Z,101044.87
2018-12-08T02:36:56.481Z,101031.79
2018-12-08T02:39:25.113Z,101042.21
2018-12-08T02:41:53.773Z,101056.02
2018-12-08T02:44:22.425Z,101052.19
2018-12-08T02:46:51.084Z,101054.73
2018-12-08T02:49:19.760Z,101041.78
2018-12-08T02:51:48.428Z,101051.24
2018-12-08T02:54:17.090Z,101046.37
2018-12-08T02:56:45.745Z,101052.69
2018-12-08T02:59:14.434Z,101043.27
2018-12-08T03:01:43.093Z,101053.77
2018-12-08T03:04:11.797Z,101055.11
2018-12-08T03:06:40.469Z,101044.70
2018-12-08T03:09:09.738Z,101056.79
2018-12-08T03:11:38.420Z,101051.02
2018-12-08T03:14:07.080Z,101042.48
2018-12-08T03:16:35.734Z,101046.05
2018-12-08T03:19:04.366Z,101047.44
2018-12-08T03:21:33.004Z,101043.05
2018-12-08T03:24:01.663Z,101033.05
2018-12-08T03:26:30.309Z,101037.27
2018-12-08T03:28:58.933Z,101032.02
2018-12-08T03:31:27.568Z,101034.55
2018-12-08T03:33:56.210Z,101037.55
2018-12-08T03:36:24.839Z,101029.14
2018-12-08T03:38:53.462Z,101020.34
2018-12-08T03:41:22.112Z,101021.16
2018-12-08T03:43:50.763Z,101027.91
2018-12-08T03:46:19.411Z,101028.63
2018-12-08T03:48:48.058Z,101041.97
2018-12-08T03:51:16.708Z,101046.08
2018-12-08T03:53:45.385Z,101020.81
2018-12-08T03:56:14.038Z,101022.44
2018-12-08T03:58:42.676Z,101045.33
2018-12-08T04:01:11.314Z,101036.08
2018-12-08T04:03:39.941Z,101025.59
2018-12-08T04:06:08.622Z,101017.32
2018-12-08T04:08:37.351Z,101016.02
2018-12-08T04:11:06.041Z,101028.19
2018-12-08T04:13:34.724Z,101026.44
2018-12-08T04:16:03.389Z,101011.22
2018-12-08T04:18:32.068Z,101022.41
2018-12-08T04:21:00.689Z,101029.69
2018-12-08T04:23:29.321Z,101031.70
2018-12-08T04:25:57.929Z,101029.87
2018-12-08T04:28:26.554Z,101067.51
2018-12-08T04:30:55.164Z,101043.17
2018-12-08T04:33:23.932Z,101043.04
2018-12-08T04:35:54.648Z,101049.02
2018-12-08T04:38:23.254Z,101055.13
2018-12-08T04:40:51.902Z,101047.84
2018-12-08T04:43:20.560Z,101046.67
2018-12-08T04:45:49.279Z,101050.71
2018-12-08T04:48:17.946Z,101080.34
2018-12-08T04:50:46.578Z,101054.10
2018-12-08T04:53:15.226Z,101045.82
2018-12-08T04:55:43.923Z,101062.55
2018-12-08T04:58:12.635Z,101069.71
2018-12-08T05:00:41.327Z,101057.19
2018-12-08T05:03:10.048Z,101075.05
2018-12-08T05:05:38.733Z,101066.43
2018-12-08T05:08:07.358Z,101082.00
2018-12-08T05:10:35.991Z,101086.36
2018-12-08T05:13:04.600Z,101074.72
2018-12-08T05:15:33.293Z,101067.88
2018-12-08T05:18:01.991Z,101051.46
2018-12-08T05:20:30.603Z,101091.03
2018-12-08T05:22:59.269Z,101082.78
2018-12-08T05:25:27.923Z,101075.41
2018-12-08T05:27:56.619Z,101096.64
2018-12-08T05:30:25.784Z,101086.68
2018-12-08T05:32:54.445Z,101086.72
2018-12-08T05:35:23.122Z,101086.39
2018-12-08T05:37:51.784Z,101070.86
2018-12-08T05:40:20.423Z,101080.86
2018-12-08T05:42:49.070Z,101076.59
2018-12-08T05:45:17.733Z,101087.38
2018-12-08T05:47:46.386Z,101079.97
2018-12-08T05:50:15.029Z,101083.42
2018-12-08T05:52:43.659Z,101069.48
2018-12-08T05:55:12.338Z,101066.38
2018-12-08T05:57:41.018Z,101091.44
2018-12-08T06:00:09.941Z,101081.84
2018-12-08T06:02:38.610Z,101086.16
2018-12-08T06:05:08.005Z,101065.77
2018-12-08T06:07:36.666Z,101079.59
2018-12-08T06:10:05.622Z,101064.30
2018-12-08T06:12:34.266Z,101064.63
2018-12-08T06:15:02.905Z,101069.71
2018-12-08T06:17:31.565Z,101092.22
2018-12-08T06:20:00.206Z,101081.22
2018-12-08T06:22:28.858Z,101058.56
2018-12-08T06:24:57.538Z,101064.95
2018-12-08T06:28:03.348Z,101098.70
2018-12-08T06:30:32.002Z,101074.29
2018-12-08T06:33:00.640Z,101068.10
2018-12-08T06:35:29.292Z,101065.05
2018-12-08T06:37:57.943Z,101098.78
2018-12-08T06:40:29.388Z,101075.70
2018-12-08T06:42:57.219Z,101084.50
2018-12-08T06:45:25.889Z,101075.59
2018-12-08T06:47:54.507Z,101082.28
2018-12-08T06:50:24.109Z,101091.19
2018-12-08T06:52:52.758Z,101077.44
2018-12-08T06:55:21.395Z,101065.94
2018-12-08T06:57:50.023Z,101069.84
2018-12-08T07:00:20.696Z,101071.14
2018-12-08T07:02:49.334Z,101091.11
2018-12-08T07:05:18.991Z,101074.56
2018-12-08T07:07:47.640Z,101074.11
2018-12-08T07:10:16.329Z,101080.62
2018-12-08T07:12:44.978Z,101088.43
2018-12-08T07:15:13.597Z,101090.54
2018-12-08T07:17:42.275Z,101079.59
2018-12-08T07:20:10.915Z,101085.17
2018-12-08T07:22:39.753Z,101097.82
2018-12-08T07:25:08.531Z,101102.38
2018-12-08T07:27:37.179Z,101101.73
2018-12-08T07:30:08.140Z,101100.92
2018-12-08T07:32:38.956Z,101120.89
2018-12-08T07:35:08.308Z,101098.39
2018-12-08T07:37:37.062Z,101096.23
2018-12-08T07:40:07.557Z,101109.66
2018-12-08T07:42:36.194Z,101111.33
2018-12-08T07:45:05.380Z,101106.08
2018-12-08T07:47:34.032Z,101112.95
2018-12-08T07:50:02.659Z,101121.62
2018-12-08T07:52:31.509Z,101113.81
2018-12-08T07:55:00.150Z,101113.89
2018-12-08T07:57:28.795Z,101104.78
2018-12-08T07:59:57.390Z,101120.44
2018-12-08T08:02:26.018Z,101116.16
2018-12-08T08:04:55.206Z,101127.39
2018-12-08T08:07:24.092Z,101112.26
2018-12-08T08:09:52.718Z,101115.23
2018-12-08T08:12:21.350Z,101126.95
2018-12-08T08:14:49.985Z,101106.98
2018-12-08T08:17:18.615Z,101108.36
2018-12-08T08:19:47.234Z,101104.05
2018-12-08T08:22:15.897Z,101105.27
2018-12-08T08:24:44.566Z,101095.27
2018-12-08T08:27:13.216Z,101090.50
2018-12-08T08:29:41.820Z,101087.91
2018-12-08T08:32:10.469Z,101092.62
2018-12-08T08:34:39.110Z,101092.13
2018-12-08T08:37:09.555Z,101078.67
2018-12-08T08:39:38.365Z,101075.21
2018-12-08T08:42:07.027Z,101073.41
2018-12-08T08:44:35.676Z,101066.43
2018-12-08T08:47:04.352Z,101063.83
2018-12-08T08:49:33.025Z,101057.72
2018-12-08T08:52:01.711Z,101059.02
2018-12-08T08:54:30.382Z,101056.74
2018-12-08T08:56:59.033Z,101048.88
2018-12-08T08:59:27.746Z,101047.42
2018-12-08T09:01:56.410Z,101052.98
2018-12-08T09:04:25.128Z,101055.59
2018-12-08T09:06:53.797Z,101035.53
2018-12-08T09:09:22.475Z,101031.09
2018-12-08T09:11:51.160Z,101026.30
2018-12-08T09:14:19.792Z,101028.40
2018-12-08T09:16:48.489Z,101016.15
2018-12-08T09:19:17.113Z,101017.00
2018-12-08T09:21:45.777Z,101003.08
2018-12-08T09:24:14.482Z,101024.28
2018-12-08T09:26:43.138Z,101017.64
2018-12-08T09:29:11.816Z,100993.30
2018-12-08T09:31:40.463Z,100984.88
2018-12-08T09:34:09.115Z,100988.20
2018-12-08T09:36:37.826Z,100992.87
2018-12-08T09:39:07.694Z,100977.97
2018-12-08T09:41:36.402Z,100970.02
2018-12-08T09:44:05.616Z,100992.87
2018-12-08T09:46:34.291Z,100965.39
2018-12-08T09:49:02.977Z,100960.94
2018-12-08T09:51:31.631Z,100953.45
2018-12-08T09:54:00.266Z,100970.24
2018-12-08T09:56:29.016Z,100962.80
2018-12-08T09:59:04.919Z,100959.23
2018-12-08T10:01:33.579Z,100950.48
2018-12-08T10:04:02.200Z,100950.42
2018-12-08T10:06:30.842Z,100945.58
2018-12-08T10:08:59.445Z,100950.34
2018-12-08T10:11:28.050Z,100923.75
2018-12-08T10:13:56.704Z,100918.93
2018-12-08T10:16:25.333Z,100907.60
2018-12-08T10:18:54.010Z,100899.25
2018-12-08T10:21:22.645Z,100891.80
2018-12-08T10:23:51.262Z,100888.73
2018-12-08T10:26:19.902Z,100886.53
2018-12-08T10:28:48.558Z,100872.50
2018-12-08T10:31:17.203Z,100871.59
2018-12-08T10:33:45.946Z,100857.27
2018-12-08T10:36:14.575Z,100864.99
2018-12-08T10:38:43.226Z,100860.99
2018-12-08T10:41:11.865Z,100856.94
2018-12-08T10:43:40.530Z,100840.39
2018-12-08T10:46:09.167Z,100843.25
2018-12-08T10:48:37.804Z,100849.22
2018-12-08T10:51:06.439Z,100845.62
2018-12-08T10:53:35.066Z,100830.28
2018-12-08T10:56:03.738Z,100832.66
2018-12-08T10:58:32.372Z,100808.19
2018-12-08T11:01:09.529Z,100816.41
2018-12-08T11:03:48.045Z,100799.30
2018-12-08T11:06:17.079Z,100796.09
2018-12-08T11:08:45.999Z,100795.45
2018-12-08T11:11:14.651Z,100796.70
2018-12-08T11:13:43.290Z,100803.52
2018-12-08T11:16:11.962Z,100783.81
2018-12-08T11:18:40.575Z,100781.56
2018-12-08T11:21:09.198Z,100775.34
2018-12-08T11:23:38.508Z,100776.13
2018-12-08T11:26:07.229Z,100770.92
2018-12-08T11:28:35.854Z,100762.61
2018-12-08T11:31:04.511Z,100767.77
2018-12-08T11:33:33.383Z,100765.52
2018-12-08T11:36:02.018Z,100744.88
2018-12-08T11:38:30.653Z,100747.79
2018-12-08T11:40:59.290Z,100747.53
2018-12-08T11:43:27.929Z,100741.80
2018-12-08T11:45:56.578Z,100742.55
2018-12-08T11:48:25.193Z,100748.98
2018-12-08T11:50:53.841Z,100741.09
2018-12-08T11:53:22.454Z,100730.01
2018-12-08T11:55:51.094Z,100731.24
2018-12-08T11:58:19.727Z,100717.19
2018-12-08T12:00:48.399Z,100763.16
2018-12-08T12:03:16.988Z,100706.49
2018-12-08T12:05:45.629Z,100716.41
2018-12-08T12:08:14.274Z,100724.60
2018-12-08T12:10:43.658Z,100715.86
2018-12-08T12:13:12.430Z,100711.48
2018-12-08T12:15:41.079Z,100714.09
2018-12-08T12:18:09.675Z,100700.20
2018-12-08T12:20:38.313Z,100703.16
2018-12-08T12:23:06.917Z,100694.26
2018-12-08T12:25:35.677Z,100706.69
2018-12-08T12:28:04.567Z,100683.48
2018-12-08T12:30:33.341Z,100675.20
2018-12-08T12:33:01.962Z,100678.20
2018-12-08T12:35:30.602Z,100673.50
2018-12-08T12:37:59.226Z,100663.06
2018-12-08T12:40:27.843Z,100657.77
2018-12-08T12:42:56.469Z,100662.15
2018-12-08T12:45:25.111Z,100640.35
2018-12-08T12:47:53.739Z,100645.12
2018-12-08T12:50:22.396Z,100647.63
2018-12-08T12:52:51.011Z,100639.73
2018-12-08T12:55:19.665Z,100609.25
2018-12-08T12:57:48.303Z,100616.23
2018-12-08T13:00:16.937Z,100621.06
2018-12-08T13:02:45.593Z,100624.98
2018-12-08T13:05:14.225Z,100633.27
2018-12-08T13:07:42.830Z,100631.05
2018-12-08T13:10:11.473Z,100617.93
2018-12-08T13:12:40.102Z,100613.52
2018-12-08T13:15:08.766Z,100630.03
2018-12-08T13:17:37.506Z,100622.13
2018-12-08T13:20:06.139Z,100623.44
2018-12-08T13:22:34.867Z,100614.30
2018-12-08T13:25:14.636Z,100614.66
2018-12-08T13:27:43.281Z,100630.32
2018-12-08T13:30:11.934Z,100635.55
2018-12-08T13:32:40.565Z,100618.11
2018-12-08T13:35:11.395Z,100611.52
2018-12-08T13:37:40.007Z,100598.36
2018-12-08T13:40:08.658Z,100589.97
2018-12-08T13:42:37.290Z,100586.62
2018-12-08T13:45:16.058Z,100576.63
2018-12-08T13:47:44.978Z,100593.31
2018-12-08T13:50:14.057Z,100582.97
2018-12-08T13:52:42.720Z,100543.14
2018-12-08T13:55:11.573Z,100574.31
2018-12-08T13:57:40.223Z,100544.19
2018-12-08T14:00:09.892Z,100541.56
2018-12-08T14:02:38.517Z,100536.52
2018-12-08T14:05:07.810Z,100515.88
2018-12-08T14:07:36.427Z,100516.05
2018-12-08T14:10:05.862Z,100510.08
2018-12-08T14:12:34.810Z,100506.73
2018-12-08T14:15:03.694Z,100515.86
2018-12-08T14:17:32.314Z,100513.16
2018-12-08T14:20:12.087Z,100522.22
2018-12-08T14:22:40.702Z,100519.72
2018-12-08T14:25:09.341Z,100518.08
2018-12-08T14:27:37.969Z,100510.72
2018-12-08T14:30:06.894Z,100529.95
2018-12-08T14:32:35.526Z,100505.01
2018-12-08T14:35:04.426Z,100515.27
2018-12-08T14:37:33.093Z,100511.54
2018-12-08T14:40:01.752Z,100488.15
2018-12-08T14:42:30.400Z,100463.09
2018-12-08T14:44:59.042Z,100448.63
2018-12-08T14:47:27.822Z,100450.32
2018-12-08T14:49:56.463Z,100440.69
2018-12-08T14:52:25.108Z,100443.30
2018-12-08T14:54:53.745Z,100432.51
2018-12-08T14:57:22.370Z,100422.98
2018-12-08T14:59:51.137Z,100433.42
2018-12-08T15:02:19.758Z,100417.86
2018-12-08T15:04:48.399Z,100414.30
2018-12-08T15:07:17.020Z,100435.69
2018-12-08T15:09:45.673Z,100416.45
2018-12-08T15:12:14.314Z,100437.34
2018-12-08T15:14:42.950Z,100433.42
2018-12-08T15:17:11.590Z,100426.55
2018-12-08T15:19:40.239Z,100420.37
2018-12-08T15:22:08.881Z,100420.37
2018-12-08T15:24:37.531Z,100422.13
2018-12-08T15:27:06.306Z,100413.49
2018-12-08T15:29:34.936Z,100414.88
2018-12-08T15:32:03.920Z,100408.91
2018-12-08T15:34:32.518Z,100398.00
2018-12-08T15:37:01.181Z,100403.77
2018-12-08T15:39:30.319Z,100391.48
2018-12-08T15:41:58.951Z,100392.78
2018-12-08T15:44:27.602Z,100374.97
2018-12-08T15:46:56.235Z,100354.93
2018-12-08T15:49:24.914Z,100342.69
2018-12-08T15:51:57.154Z,100365.91
2018-12-08T15:54:25.802Z,100365.35
2018-12-08T15:56:54.421Z,100421.48
2018-12-08T15:59:23.051Z,100386.19
2018-12-08T16:01:51.682Z,100412.98
2018-12-08T16:04:20.404Z,100401.14
2018-12-08T16:06:49.261Z,100389.47
2018-12-08T16:09:17.936Z,100405.77
2018-12-08T16:11:46.626Z,100392.12
2018-12-08T16:14:15.418Z,100400.66
2018-12-08T16:16:44.072Z,100390.23
2018-12-08T16:19:12.735Z,100415.39
2018-12-08T16:21:41.410Z,100406.16
2018-12-08T16:24:10.094Z,100407.23
2018-12-08T16:26:38.740Z,100420.09
2018-12-08T16:29:07.466Z,100386.56
2018-12-08T16:31:36.306Z,100433.77
2018-12-08T16:34:05.266Z,100407.64
2018-12-08T16:36:35.636Z,100414.34
2018-12-08T16:39:07.044Z,100407.66
2018-12-08T16:41:35.951Z,100402.66
2018-12-08T16:44:04.739Z,100447.73
2018-12-08T16:46:33.674Z,100387.20
2018-12-08T16:49:03.054Z,100402.11
2018-12-08T16:51:31.803Z,100414.52
2018-12-08T16:54:00.542Z,100388.34
2018-12-08T16:56:29.866Z,100383.72
2018-12-08T16:58:58.590Z,100393.95
2018-12-08T17:01:27.476Z,100397.78
2018-12-08T17:03:56.299Z,100392.47
2018-12-08T17:06:24.988Z,100397.16
2018-12-08T17:08:53.606Z,100399.76
2018-12-08T17:11:22.258Z,100378.22
2018-12-08T17:13:50.920Z,100373.78
2018-12-08T17:16:19.586Z,100382.98
2018-12-08T17:18:48.292Z,100390.17
2018-12-08T17:21:16.962Z,100375.27
2018-12-08T17:23:45.613Z,100380.77
2018-12-08T17:26:14.258Z,100382.06
2018-12-08T17:28:42.887Z,100385.98
2018-12-08T17:31:11.498Z,100391.20
2018-12-08T17:33:40.108Z,100382.73
2018-12-08T17:36:08.940Z,100397.55
2018-12-08T17:38:37.624Z,100398.74
2018-12-08T17:41:06.270Z,100397.44
2018-12-08T17:43:34.925Z,100434.53
2018-12-08T17:46:03.587Z,100419.83
2018-12-08T17:48:32.216Z,100422.97
2018-12-08T17:51:00.878Z,100413.55
2018-12-08T17:53:29.500Z,100446.16
2018-12-08T17:55:58.149Z,100416.34
2018-12-08T17:58:26.794Z,100425.95
2018-12-08T18:00:55.597Z,100456.42
2018-12-08T18:03:24.294Z,100440.77
2018-12-08T18:05:53.015Z,100447.00
2018-12-08T18:08:21.717Z,100437.03
2018-12-08T18:10:50.350Z,100437.48
2018-12-08T18:13:18.969Z,100452.84
2018-12-08T18:15:47.851Z,100442.80
2018-12-08T18:18:16.845Z,100435.05
2018-12-08T18:20:45.596Z,100455.07
2018-12-08T18:23:14.242Z,100451.16
2018-12-08T18:25:42.918Z,100443.89
2018-12-08T18:28:11.569Z,100452.84
2018-12-08T18:30:40.233Z,100439.91
2018-12-08T18:33:09.022Z,100455.84
2018-12-08T18:35:37.676Z,100441.39
2018-12-08T18:38:06.395Z,100426.59
2018-12-08T18:40:35.179Z,100428.74
2018-12-08T18:43:03.858Z,100454.83
2018-12-08T18:45:32.533Z,100412.24
2018-12-08T18:48:01.179Z,100438.79
2018-12-08T18:50:29.843Z,100429.09
2018-12-08T18:52:58.497Z,100438.16
2018-12-08T18:55:27.139Z,100449.89
2018-12-08T18:57:55.795Z,100439.53
2018-12-08T19:00:24.453Z,100437.20
2018-12-08T19:02:53.127Z,100419.23
2018-12-08T19:05:22.798Z,100423.25
2018-12-08T19:07:51.468Z,100426.41
2018-12-08T19:10:20.147Z,100448.59
2018-12-08T19:12:48.762Z,100438.51
2018-12-08T19:15:17.434Z,100447.81
2018-12-08T19:17:46.102Z,100443.38
2018-12-08T19:20:14.754Z,100450.81
2018-12-08T19:22:43.450Z,100449.61
2018-12-08T19:25:12.117Z,100448.20
2018-12-08T19:27:40.769Z,100442.98
2018-12-08T19:30:10.574Z,100437.94
2018-12-08T19:32:39.274Z,100436.64
2018-12-08T19:35:08.118Z,100458.81
2018-12-08T19:37:37.006Z,100454.78
2018-12-08T19:40:06.536Z,100441.45
2018-12-08T19:42:35.165Z,100439.80
2018-12-08T19:45:03.950Z,100452.62
2018-12-08T19:47:32.595Z,100432.03
2018-12-08T19:50:01.245Z,100445.81
2018-12-08T19:52:29.871Z,100448.88
2018-12-08T19:54:58.525Z,100490.25
2018-12-08T19:57:27.171Z,100461.07
2018-12-08T19:59:55.791Z,100454.02
2018-12-08T20:02:24.453Z,100433.16
2018-12-08T20:04:53.093Z,100454.84
2018-12-08T20:07:21.760Z,100434.75
2018-12-08T20:09:50.438Z,100439.41
2018-12-08T20:12:19.208Z,100424.61
2018-12-08T20:14:47.883Z,100440.71
2018-12-08T20:17:16.547Z,100408.29
2018-12-08T20:19:45.194Z,100419.28
2018-12-08T20:22:13.956Z,100430.95
2018-12-08T20:24:43.478Z,100414.81
2018-12-08T20:27:12.181Z,100424.78
2018-12-08T20:29:40.881Z,100427.39
2018-12-08T20:32:10.286Z,100415.66
2018-12-08T20:34:39.412Z,100436.53
2018-12-08T20:37:08.672Z,100431.23
2018-12-08T20:39:38.831Z,100418.72
2018-12-08T20:42:07.506Z,100405.22
2018-12-08T20:44:36.313Z,100417.98
2018-12-08T20:47:05.296Z,100375.45
2018-12-08T20:49:34.005Z,100480.29
2018-12-08T20:52:02.689Z,100514.09
2018-12-08T20:54:31.468Z,100483.14
2018-12-08T20:57:00.135Z,100488.05
2018-12-08T20:59:28.750Z,100509.42
2018-12-08T21:01:57.633Z,100478.34
2018-12-08T21:04:26.279Z,100485.78
2018-12-08T21:06:54.940Z,100517.80
2018-12-08T21:09:23.593Z,100497.68
2018-12-08T21:11:52.268Z,100512.13
2018-12-08T21:14:20.875Z,100507.47
2018-12-08T21:16:49.470Z,100491.95
2018-12-08T21:19:18.343Z,100504.02
2018-12-08T21:21:46.993Z,100496.16
2018-12-08T21:24:15.779Z,100500.82
2018-12-08T21:26:44.991Z,100498.98
2018-12-08T21:29:14.805Z,100511.84
2018-12-08T21:31:43.685Z,100495.55
2018-12-08T21:34:13.211Z,100492.50
2018-12-08T21:36:41.928Z,100494.11
2018-12-08T21:39:10.654Z,100477.66
2018-12-08T21:41:39.334Z,100503.22
2018-12-08T21:44:08.016Z,100506.63
2018-12-08T21:46:36.781Z,100499.91
2018-12-08T21:49:05.420Z,100486.04
2018-12-08T21:51:34.119Z,100486.22
2018-12-08T21:54:02.743Z,100476.75
2018-12-08T21:56:31.350Z,100472.69
2018-12-08T21:58:59.977Z,100468.56
2018-12-08T22:01:28.799Z,100478.13
2018-12-08T22:03:57.442Z,100475.69
2018-12-08T22:06:26.078Z,100483.75
2018-12-08T22:08:54.783Z,100504.89
2018-12-08T22:11:23.430Z,100468.63
2018-12-08T22:13:52.068Z,100485.34
2018-12-08T22:16:20.690Z,100498.13
2018-12-08T22:18:49.447Z,100469.49
2018-12-08T22:21:18.087Z,100486.80
2018-12-08T22:23:46.732Z,100491.46
2018-12-08T22:26:15.338Z,100502.17
2018-12-08T22:28:44.002Z,100502.17
2018-12-08T22:31:12.642Z,100492.31
2018-12-08T22:33:41.302Z,100534.91
2018-12-08T22:36:09.930Z,100470.79
2018-12-08T22:38:38.568Z,100509.78
2018-12-08T22:41:07.183Z,100518.29
2018-12-08T22:43:35.803Z,100541.31
2018-12-08T22:46:04.506Z,100499.22
2018-12-08T22:48:33.950Z,100531.70
2018-12-08T22:51:02.781Z,100486.81
2018-12-08T22:53:31.403Z,100482.20
2018-12-08T22:56:00.025Z,100463.77
2018-12-08T22:58:28.644Z,100474.94
2018-12-08T23:00:57.298Z,100498.21
2018-12-08T23:03:25.926Z,100484.52
2018-12-08T23:05:54.538Z,100489.18
2018-12-08T23:08:23.146Z,100489.02
2018-12-08T23:10:51.762Z,100498.89
2018-12-08T23:13:20.562Z,100506.19
2018-12-08T23:15:49.181Z,100493.53
2018-12-08T23:18:18.436Z,100520.41
2018-12-08T23:20:47.061Z,100472.92
2018-12-08T23:23:15.667Z,100493.60
2018-12-08T23:25:44.298Z,100498.27
2018-12-08T23:28:12.939Z,100497.26
2018-12-08T23:30:41.560Z,100508.88
2018-12-08T23:33:10.186Z,100518.78
2018-12-08T23:35:38.975Z,100508.73
2018-12-08T23:38:07.596Z,100501.40
2018-12-08T23:40:36.236Z,100505.30
2018-12-08T23:43:04.838Z,100514.48
2018-12-08T23:45:33.491Z,100506.67
2018-12-08T23:48:02.155Z,100510.03
2018-12-08T23:50:30.811Z,100512.47
2018-12-08T23:52:59.429Z,100526.34
2018-12-08T23:55:28.076Z,100523.12
2018-12-08T23:57:56.691Z,100523.78
